sensor_id;sensor_type;location;lat;lon;timestamp;pressure;altitude;pressure_sealevel;temperature;humidity
12987;BME280;58897;51.960;5.582;2024-03-02T00:00:56;99520.09;;;8.22;100.00
12987;BME280;58897;51.960;5.582;2024-03-02T00:03:22;99523.47;;;8.24;100.00
12987;BME280;58897;51.960;5.582;2024-03-02T00:05:50;99513.06;;;8.21;100.00
12987;BME280;58897;51.960;5.582;2024-03-02T00:08:24;99516.59;;;8.21;100.00
12987;BME280;58897;51.960;5.582;2024-03-02T00:10:58;99523.63;;;8.22;100.00
12987;BME280;58897;51.960;5.582;2024-03-02T00:13:25;99520.09;;;8.22;100.00
12987;BME280;58897;51.960;5.582;2024-03-02T00:15:54;99521.28;;;8.19;100.00
12987;BME280;58897;51.960;5.582;2024-03-02T00:18:27;99534.09;;;8.17;100.00
12987;BME280;58897;51.960;5.582;2024-03-02T00:20:57;99529.56;;;8.18;100.00
12987;BME280;58897;51.960;5.582;2024-03-02T00:23:27;99535.09;;;8.16;100.00
12987;BME280;58897;51.960;5.582;2024-03-02T00:25:54;99531.41;;;8.17;100.00
12987;BME280;58897;51.960;5.582;2024-03-02T00:28:33;99558.00;;;8.12;100.00
12987;BME280;58897;51.960;5.582;2024-03-02T00:31:08;99554.66;;;8.10;100.00
12987;BME280;58897;51.960;5.582;2024-03-02T00:33:46;99569.81;;;8.03;100.00
12987;BME280;58897;51.960;5.582;2024-03-02T00:36:22;99575.56;;;8.00;100.00
12987;BME280;58897;51.960;5.582;2024-03-02T00:38:52;99575.28;;;7.95;100.00
12987;BME280;58897;51.960;5.582;2024-03-02T00:41:32;99566.72;;;7.91;100.00
12987;BME280;58897;51.960;5.582;2024-03-02T00:44:01;99599.31;;;7.88;100.00
12987;BME280;58897;51.960;5.582;2024-03-02T00:46:29;99608.72;;;7.92;100.00
12987;BME280;58897;51.960;5.582;2024-03-02T00:48:58;99640.47;;;7.97;100.00
12987;BME280;58897;51.960;5.582;2024-03-02T00:51:27;99626.38;;;7.95;100.00
12987;BME280;58897;51.960;5.582;2024-03-02T00:53:58;99627.91;;;7.89;100.00
12987;BME280;58897;51.960;5.582;2024-03-02T00:56:25;99638.03;;;7.79;100.00
12987;BME280;58897;51.960;5.582;2024-03-02T00:58:53;99634.66;;;7.77;100.00
12987;BME280;58897;51.960;5.582;2024-03-02T01:01:20;99642.75;;;7.69;100.00
12987;BME280;58897;51.960;5.582;2024-03-02T01:03:46;99638.53;;;7.75;100.00
12987;BME280;58897;51.960;5.582;2024-03-02T01:06:13;99644.13;;;7.65;100.00
12987;BME280;58897;51.960;5.582;2024-03-02T01:08:40;99642.28;;;7.66;100.00
12987;BME280;58897;51.960;5.582;2024-03-02T01:11:07;99639.44;;;7.59;100.00
12987;BME280;58897;51.960;5.582;2024-03-02T01:13:34;99646.31;;;7.54;100.00
12987;BME280;58897;51.960;5.582;2024-03-02T01:16:01;99654.78;;;7.42;100.00
12987;BME280;58897;51.960;5.582;2024-03-02T01:18:28;99650.22;;;7.43;100.00
12987;BME280;58897;51.960;5.582;2024-03-02T01:20:55;99653.94;;;7.42;100.00
12987;BME280;58897;51.960;5.582;2024-03-02T01:23:23;99645.56;;;7.37;100.00
12987;BME280;58897;51.960;5.582;2024-03-02T01:25:50;99635.31;;;7.32;100.00
12987;BME280;58897;51.960;5.582;2024-03-02T01:28:18;99645.72;;;7.27;100.00
12987;BME280;58897;51.960;5.582;2024-03-02T01:30:45;99637.84;;;7.26;100.00
12987;BME280;58897;51.960;5.582;2024-03-02T01:33:12;99662.03;;;7.18;100.00
12987;BME280;58897;51.960;5.582;2024-03-02T01:35:39;99672.28;;;7.14;100.00
12987;BME280;58897;51.960;5.582;2024-03-02T01:38:05;99655.00;;;7.09;100.00
12987;BME280;58897;51.960;5.582;2024-03-02T01:40:34;99658.03;;;7.06;100.00
12987;BME280;58897;51.960;5.582;2024-03-02T01:43:00;99650.81;;;7.06;100.00
12987;BME280;58897;51.960;5.582;2024-03-02T01:45:28;99647.09;;;7.07;100.00
12987;BME280;58897;51.960;5.582;2024-03-02T01:47:55;99639.56;;;7.03;100.00
12987;BME280;58897;51.960;5.582;2024-03-02T01:50:28;99649.13;;;7.05;100.00
12987;BME280;58897;51.960;5.582;2024-03-02T01:52:55;99654.31;;;7.07;100.00
12987;BME280;58897;51.960;5.582;2024-03-02T01:55:22;99657.38;;;7.04;100.00
12987;BME280;58897;51.960;5.582;2024-03-02T01:57:49;99653.66;;;7.05;100.00
12987;BME280;58897;51.960;5.582;2024-03-02T02:00:21;99647.63;;;7.03;100.00
12987;BME280;58897;51.960;5.582;2024-03-02T02:02:48;99641.59;;;7.09;100.00
12987;BME280;58897;51.960;5.582;2024-03-02T02:05:14;99655.34;;;7.14;100.00
12987;BME280;58897;51.960;5.582;2024-03-02T02:07:42;99657.19;;;7.05;100.00
12987;BME280;58897;51.960;5.582;2024-03-02T02:10:12;99656.53;;;7.03;100.00
12987;BME280;58897;51.960;5.582;2024-03-02T02:12:39;99651.16;;;7.03;100.00
12987;BME280;58897;51.960;5.582;2024-03-02T02:15:28;99658.19;;;7.04;100.00
12987;BME280;58897;51.960;5.582;2024-03-02T02:17:57;99657.03;;;6.99;100.00
12987;BME280;58897;51.960;5.582;2024-03-02T02:20:24;99649.47;;;7.02;100.00
12987;BME280;58897;51.960;5.582;2024-03-02T02:23:01;99644.44;;;6.99;100.00
12987;BME280;58897;51.960;5.582;2024-03-02T02:25:28;99654.50;;;6.97;100.00
12987;BME280;58897;51.960;5.582;2024-03-02T02:30:30;99656.00;;;6.92;100.00
12987;BME280;58897;51.960;5.582;2024-03-02T02:32:58;99647.97;;;6.92;100.00
12987;BME280;58897;51.960;5.582;2024-03-02T02:35:25;99661.38;;;6.92;100.00
12987;BME280;58897;51.960;5.582;2024-03-02T02:37:53;99656.19;;;6.90;100.00
12987;BME280;58897;51.960;5.582;2024-03-02T02:40:20;99649.31;;;6.88;100.00
12987;BME280;58897;51.960;5.582;2024-03-02T02:42:47;99653.50;;;6.82;100.00
12987;BME280;58897;51.960;5.582;2024-03-02T02:45:14;99658.03;;;6.81;100.00
12987;BME280;58897;51.960;5.582;2024-03-02T02:47:42;99660.72;;;6.81;100.00
12987;BME280;58897;51.960;5.582;2024-03-02T02:50:11;99651.81;;;6.81;100.00
12987;BME280;58897;51.960;5.582;2024-03-02T02:52:40;99659.53;;;6.76;100.00
12987;BME280;58897;51.960;5.582;2024-03-02T02:55:12;99665.56;;;6.78;100.00
12987;BME280;58897;51.960;5.582;2024-03-02T02:57:40;99675.97;;;6.81;100.00
12987;BME280;58897;51.960;5.582;2024-03-02T03:00:13;99676.16;;;6.71;100.00
12987;BME280;58897;51.960;5.582;2024-03-02T03:02:46;99666.72;;;6.67;100.00
12987;BME280;58897;51.960;5.582;2024-03-02T03:05:15;99674.97;;;6.74;100.00
12987;BME280;58897;51.960;5.582;2024-03-02T03:07:42;99674.78;;;6.67;100.00
12987;BME280;58897;51.960;5.582;2024-03-02T03:10:10;99675.47;;;6.69;100.00
12987;BME280;58897;51.960;5.582;2024-03-02T03:12:37;99663.91;;;6.69;100.00
12987;BME280;58897;51.960;5.582;2024-03-02T03:15:04;99661.72;;;6.64;100.00
12987;BME280;58897;51.960;5.582;2024-03-02T03:17:33;99684.00;;;6.65;100.00
12987;BME280;58897;51.960;5.582;2024-03-02T03:19:59;99690.06;;;6.59;100.00
12987;BME280;58897;51.960;5.582;2024-03-02T03:22:27;99674.63;;;6.61;100.00
12987;BME280;58897;51.960;5.582;2024-03-02T03:24:53;99678.47;;;6.58;100.00
12987;BME280;58897;51.960;5.582;2024-03-02T03:27:20;99676.97;;;6.56;100.00
12987;BME280;58897;51.960;5.582;2024-03-02T03:29:47;99683.66;;;6.52;100.00
12987;BME280;58897;51.960;5.582;2024-03-02T03:32:13;99674.63;;;6.61;100.00
12987;BME280;58897;51.960;5.582;2024-03-02T03:34:40;99681.66;;;6.54;100.00
12987;BME280;58897;51.960;5.582;2024-03-02T03:37:07;99678.28;;;6.52;100.00
12987;BME280;58897;51.960;5.582;2024-03-02T03:39:34;99688.53;;;6.56;100.00
12987;BME280;58897;51.960;5.582;2024-03-02T03:42:02;99680.84;;;6.61;100.00
12987;BME280;58897;51.960;5.582;2024-03-02T03:44:29;99687.06;;;6.62;100.00
12987;BME280;58897;51.960;5.582;2024-03-02T03:46:56;99686.34;;;6.60;100.00
12987;BME280;58897;51.960;5.582;2024-03-02T03:49:22;99685.34;;;6.61;100.00
12987;BME280;58897;51.960;5.582;2024-03-02T03:51:49;99685.19;;;6.62;100.00
12987;BME280;58897;51.960;5.582;2024-03-02T03:54:16;99679.16;;;6.60;100.00
12987;BME280;58897;51.960;5.582;2024-03-02T03:56:42;99678.66;;;6.57;100.00
12987;BME280;58897;51.960;5.582;2024-03-02T03:59:09;99678.28;;;6.52;100.00
12987;BME280;58897;51.960;5.582;2024-03-02T04:01:35;99681.81;;;6.60;100.00
12987;BME280;58897;51.960;5.582;2024-03-02T04:04:02;99697.41;;;6.65;100.00
12987;BME280;58897;51.960;5.582;2024-03-02T04:06:30;99684.19;;;6.63;100.00
12987;BME280;58897;51.960;5.582;2024-03-02T04:08:56;99697.09;;;6.60;100.00
12987;BME280;58897;51.960;5.582;2024-03-02T04:11:23;99695.25;;;6.60;100.00
12987;BME280;58897;51.960;5.582;2024-03-02T04:13:50;99691.06;;;6.58;100.00
12987;BME280;58897;51.960;5.582;2024-03-02T04:16:16;99688.53;;;6.56;100.00
12987;BME280;58897;51.960;5.582;2024-03-02T04:18:43;99691.91;;;6.58;100.00
12987;BME280;58897;51.960;5.582;2024-03-02T04:21:09;99686.34;;;6.60;100.00
12987;BME280;58897;51.960;5.582;2024-03-02T04:23:36;99687.88;;;6.62;100.00
12987;BME280;58897;51.960;5.582;2024-03-02T04:26:03;99691.72;;;6.60;100.00
12987;BME280;58897;51.960;5.582;2024-03-02T04:28:30;99695.59;;;6.65;100.00
12987;BME280;58897;51.960;5.582;2024-03-02T04:30:57;99689.72;;;6.62;100.00
12987;BME280;58897;51.960;5.582;2024-03-02T04:33:23;99700.28;;;6.63;100.00
12987;BME280;58897;51.960;5.582;2024-03-02T04:35:50;99704.16;;;6.61;100.00
12987;BME280;58897;51.960;5.582;2024-03-02T04:38:17;99705.84;;;6.62;100.00
12987;BME280;58897;51.960;5.582;2024-03-02T04:40:43;99705.16;;;6.68;100.00
12987;BME280;58897;51.960;5.582;2024-03-02T04:43:10;99709.00;;;6.65;100.00
12987;BME280;58897;51.960;5.582;2024-03-02T04:45:38;99695.59;;;6.65;100.00
12987;BME280;58897;51.960;5.582;2024-03-02T04:48:05;99710.84;;;6.73;100.00
12987;BME280;58897;51.960;5.582;2024-03-02T04:50:32;99715.75;;;6.69;100.00
12987;BME280;58897;51.960;5.582;2024-03-02T04:52:59;99711.22;;;6.70;100.00
12987;BME280;58897;51.960;5.582;2024-03-02T04:55:25;99714.38;;;6.65;100.00
12987;BME280;58897;51.960;5.582;2024-03-02T04:57:55;99723.78;;;6.69;100.00
12987;BME280;58897;51.960;5.582;2024-03-02T05:00:22;99717.91;;;6.66;100.00
12987;BME280;58897;51.960;5.582;2024-03-02T05:02:49;99718.25;;;6.71;100.00
12987;BME280;58897;51.960;5.582;2024-03-02T05:05:16;99725.13;;;6.73;100.00
12987;BME280;58897;51.960;5.582;2024-03-02T05:07:43;99716.72;;;6.68;100.00
12987;BME280;58897;51.960;5.582;2024-03-02T05:10:11;99711.69;;;6.65;100.00
12987;BME280;58897;51.960;5.582;2024-03-02T05:12:41;99717.72;;;6.67;100.00
12987;BME280;58897;51.960;5.582;2024-03-02T05:15:12;99722.06;;;6.60;100.00
12987;BME280;58897;51.960;5.582;2024-03-02T05:17:40;99723.09;;;6.59;100.00
12987;BME280;58897;51.960;5.582;2024-03-02T05:20:07;99720.56;;;6.58;100.00
12987;BME280;58897;51.960;5.582;2024-03-02T05:22:34;99729.78;;;6.55;100.00
12987;BME280;58897;51.960;5.582;2024-03-02T05:25:02;99737.31;;;6.52;100.00
12987;BME280;58897;51.960;5.582;2024-03-02T05:27:30;99742.69;;;6.52;100.00
12987;BME280;58897;51.960;5.582;2024-03-02T05:29:56;99738.47;;;6.49;100.00
12987;BME280;58897;51.960;5.582;2024-03-02T05:32:24;99735.31;;;6.46;100.00
12987;BME280;58897;51.960;5.582;2024-03-02T05:34:51;99736.28;;;6.45;100.00
12987;BME280;58897;51.960;5.582;2024-03-02T05:37:17;99740.50;;;6.47;100.00
12987;BME280;58897;51.960;5.582;2024-03-02T05:39:44;99746.53;;;6.49;100.00
12987;BME280;58897;51.960;5.582;2024-03-02T05:42:11;99747.56;;;6.56;100.00
12987;BME280;58897;51.960;5.582;2024-03-02T05:44:37;99747.88;;;6.45;100.00
12987;BME280;58897;51.960;5.582;2024-03-02T05:47:04;99747.03;;;6.45;100.00
12987;BME280;58897;51.960;5.582;2024-03-02T05:49:31;99762.47;;;6.51;100.00
12987;BME280;58897;51.960;5.582;2024-03-02T05:51:57;99763.31;;;6.51;100.00
12987;BME280;58897;51.960;5.582;2024-03-02T05:54:24;99756.25;;;6.42;100.00
12987;BME280;58897;51.960;5.582;2024-03-02T05:56:51;99756.09;;;6.44;100.00
12987;BME280;58897;51.960;5.582;2024-03-02T05:59:17;99763.44;;;6.42;100.00
12987;BME280;58897;51.960;5.582;2024-03-02T06:01:45;99755.22;;;6.35;100.00
12987;BME280;58897;51.960;5.582;2024-03-02T06:04:18;99764.94;;;6.36;100.00
12987;BME280;58897;51.960;5.582;2024-03-02T06:06:45;99765.63;;;6.38;100.00
12987;BME280;58897;51.960;5.582;2024-03-02T06:09:12;99761.56;;;6.34;100.00
12987;BME280;58897;51.960;5.582;2024-03-02T06:11:40;99765.75;;;6.29;100.00
12987;BME280;58897;51.960;5.582;2024-03-02T06:14:08;99769.75;;;6.25;100.00
12987;BME280;58897;51.960;5.582;2024-03-02T06:16:35;99774.28;;;6.24;100.00
12987;BME280;58897;51.960;5.582;2024-03-02T06:19:02;99771.47;;;6.26;100.00
12987;BME280;58897;51.960;5.582;2024-03-02T06:21:29;99774.59;;;6.21;100.00
12987;BME280;58897;51.960;5.582;2024-03-02T06:23:55;99776.97;;;6.24;100.00
12987;BME280;58897;51.960;5.582;2024-03-02T06:26:23;99777.47;;;6.19;100.00
12987;BME280;58897;51.960;5.582;2024-03-02T06:28:51;99787.19;;;6.29;100.00
12987;BME280;58897;51.960;5.582;2024-03-02T06:31:18;99792.22;;;6.23;100.00
12987;BME280;58897;51.960;5.582;2024-03-02T06:33:45;99789.75;;;6.30;100.00
12987;BME280;58897;51.960;5.582;2024-03-02T06:36:12;99783.03;;;6.34;100.00
12987;BME280;58897;51.960;5.582;2024-03-02T06:38:39;99781.56;;;6.40;100.00
12987;BME280;58897;51.960;5.582;2024-03-02T06:41:09;99779.41;;;6.43;100.00
12987;BME280;58897;51.960;5.582;2024-03-02T06:43:36;99774.19;;;6.42;100.00
12987;BME280;58897;51.960;5.582;2024-03-02T06:46:02;99778.06;;;6.47;100.00
12987;BME280;58897;51.960;5.582;2024-03-02T06:48:29;99785.97;;;6.49;100.00
12987;BME280;58897;51.960;5.582;2024-03-02T06:50:57;99782.28;;;6.58;100.00
12987;BME280;58897;51.960;5.582;2024-03-02T06:53:24;99781.41;;;6.49;100.00
12987;BME280;58897;51.960;5.582;2024-03-02T06:55:51;99772.53;;;6.49;100.00
12987;BME280;58897;51.960;5.582;2024-03-02T06:58:18;99779.56;;;6.50;100.00
12987;BME280;58897;51.960;5.582;2024-03-02T07:00:44;99768.69;;;6.51;100.00
12987;BME280;58897;51.960;5.582;2024-03-02T07:03:11;99772.03;;;6.53;100.00
12987;BME280;58897;51.960;5.582;2024-03-02T07:05:39;99776.06;;;6.57;100.00
12987;BME280;58897;51.960;5.582;2024-03-02T07:08:06;99778.09;;;6.55;100.00
12987;BME280;58897;51.960;5.582;2024-03-02T07:10:32;99786.81;;;6.57;100.00
12987;BME280;58897;51.960;5.582;2024-03-02T07:12:59;99781.44;;;6.57;100.00
12987;BME280;58897;51.960;5.582;2024-03-02T07:15:26;99797.06;;;6.62;100.00
12987;BME280;58897;51.960;5.582;2024-03-02T07:17:55;99788.53;;;6.66;100.00
12987;BME280;58897;51.960;5.582;2024-03-02T07:20:22;99791.72;;;6.70;100.00
12987;BME280;58897;51.960;5.582;2024-03-02T07:22:49;99795.56;;;6.67;100.00
12987;BME280;58897;51.960;5.582;2024-03-02T07:25:16;99797.09;;;6.70;100.00
12987;BME280;58897;51.960;5.582;2024-03-02T07:27:45;99799.44;;;6.73;100.00
12987;BME280;58897;51.960;5.582;2024-03-02T07:30:15;99796.13;;;6.87;100.00
12987;BME280;58897;51.960;5.582;2024-03-02T07:32:44;99800.13;;;6.91;100.00
12987;BME280;58897;51.960;5.582;2024-03-02T07:35:12;99809.56;;;6.95;100.00
12987;BME280;58897;51.960;5.582;2024-03-02T07:37:41;99808.06;;;7.01;100.00
12987;BME280;58897;51.960;5.582;2024-03-02T07:40:09;99816.47;;;7.06;100.00
12987;BME280;58897;51.960;5.582;2024-03-02T07:42:38;99817.66;;;7.19;100.00
12987;BME280;58897;51.960;5.582;2024-03-02T07:45:06;99816.97;;;7.25;100.00
12987;BME280;58897;51.960;5.582;2024-03-02T07:47:36;99816.31;;;7.39;100.00
12987;BME280;58897;51.960;5.582;2024-03-02T07:50:03;99819.84;;;7.40;100.00
12987;BME280;58897;51.960;5.582;2024-03-02T07:52:33;99822.38;;;7.41;100.00
12987;BME280;58897;51.960;5.582;2024-03-02T07:55:00;99813.31;;;7.42;100.00
12987;BME280;58897;51.960;5.582;2024-03-02T07:57:26;99812.13;;;7.53;100.00
12987;BME280;58897;51.960;5.582;2024-03-02T07:59:53;99809.78;;;7.42;100.00
12987;BME280;58897;51.960;5.582;2024-03-02T08:02:20;99821.53;;;7.49;100.00
12987;BME280;58897;51.960;5.582;2024-03-02T08:04:46;99823.03;;;7.43;100.00
12987;BME280;58897;51.960;5.582;2024-03-02T08:07:13;99826.75;;;7.42;100.00
12987;BME280;58897;51.960;5.582;2024-03-02T08:09:40;99829.44;;;7.51;100.00
12987;BME280;58897;51.960;5.582;2024-03-02T08:12:06;99828.59;;;7.50;100.00
12987;BME280;58897;51.960;5.582;2024-03-02T08:14:33;99828.75;;;7.57;100.00
12987;BME280;58897;51.960;5.582;2024-03-02T08:17:00;99821.03;;;7.45;100.00
12987;BME280;58897;51.960;5.582;2024-03-02T08:19:28;99828.91;;;7.47;100.00
12987;BME280;58897;51.960;5.582;2024-03-02T08:21:54;99830.94;;;7.45;100.00
12987;BME280;58897;51.960;5.582;2024-03-02T08:24:21;99817.97;;;7.40;100.00
12987;BME280;58897;51.960;5.582;2024-03-02T08:26:48;99829.56;;;7.41;100.00
12987;BME280;58897;51.960;5.582;2024-03-02T08:29:14;99840.66;;;7.38;100.00
12987;BME280;58897;51.960;5.582;2024-03-02T08:31:41;99829.09;;;7.37;100.00
12987;BME280;58897;51.960;5.582;2024-03-02T08:34:08;99825.22;;;7.40;100.00
12987;BME280;58897;51.960;5.582;2024-03-02T08:36:36;99823.22;;;7.50;100.00
12987;BME280;58897;51.960;5.582;2024-03-02T08:39:03;99824.53;;;7.62;100.00
12987;BME280;58897;51.960;5.582;2024-03-02T08:41:29;99821.34;;;7.75;100.00
12987;BME280;58897;51.960;5.582;2024-03-02T08:43:56;99827.19;;;8.02;100.00
12987;BME280;58897;51.960;5.582;2024-03-02T08:46:23;99830.19;;;8.16;100.00
12987;BME280;58897;51.960;5.582;2024-03-02T08:48:49;99830.94;;;8.48;100.00
12987;BME280;58897;51.960;5.582;2024-03-02T08:51:16;99833.38;;;8.66;100.00
12987;BME280;58897;51.960;5.582;2024-03-02T08:53:43;99831.88;;;8.94;100.00
12987;BME280;58897;51.960;5.582;2024-03-02T08:56:10;99837.03;;;9.35;100.00
12987;BME280;58897;51.960;5.582;2024-03-02T08:58:37;99827.91;;;9.58;100.00
12987;BME280;58897;51.960;5.582;2024-03-02T09:01:03;99832.22;;;9.67;100.00
12987;BME280;58897;51.960;5.582;2024-03-02T09:03:30;99839.59;;;9.73;100.00
12987;BME280;58897;51.960;5.582;2024-03-02T09:05:59;99851.16;;;9.82;100.00
12987;BME280;58897;51.960;5.582;2024-03-02T09:08:26;99849.25;;;10.05;100.00
12987;BME280;58897;51.960;5.582;2024-03-02T09:10:53;99837.97;;;10.02;100.00
12987;BME280;58897;51.960;5.582;2024-03-02T09:13:19;99828.81;;;10.25;100.00
12987;BME280;58897;51.960;5.582;2024-03-02T09:15:46;99835.41;;;10.81;100.00
12987;BME280;58897;51.960;5.582;2024-03-02T09:18:13;99841.34;;;11.27;100.00
12987;BME280;58897;51.960;5.582;2024-03-02T09:20:40;99848.00;;;11.10;100.00
12987;BME280;58897;51.960;5.582;2024-03-02T09:23:06;99841.66;;;11.18;100.00
12987;BME280;58897;51.960;5.582;2024-03-02T09:25:33;99841.81;;;10.95;100.00
12987;BME280;58897;51.960;5.582;2024-03-02T09:28:00;99835.66;;;11.22;100.00
12987;BME280;58897;51.960;5.582;2024-03-02T09:30:26;99843.59;;;11.66;100.00
12987;BME280;58897;51.960;5.582;2024-03-02T09:32:53;99841.94;;;11.44;100.00
12987;BME280;58897;51.960;5.582;2024-03-02T09:35:40;99847.72;;;11.62;100.00
12987;BME280;58897;51.960;5.582;2024-03-02T09:38:06;99839.75;;;11.75;100.00
12987;BME280;58897;51.960;5.582;2024-03-02T09:40:33;99836.31;;;11.66;100.00
12987;BME280;58897;51.960;5.582;2024-03-02T09:43:00;99851.34;;;11.90;100.00
12987;BME280;58897;51.960;5.582;2024-03-02T09:45:27;99842.69;;;11.59;100.00
12987;BME280;58897;51.960;5.582;2024-03-02T09:47:54;99843.00;;;11.92;100.00
12987;BME280;58897;51.960;5.582;2024-03-02T09:50:21;99843.03;;;12.19;100.00
12987;BME280;58897;51.960;5.582;2024-03-02T09:52:48;99846.53;;;12.13;100.00
12987;BME280;58897;51.960;5.582;2024-03-02T09:55:16;99843.75;;;12.69;100.00
12987;BME280;58897;51.960;5.582;2024-03-02T09:57:45;99840.06;;;12.42;100.00
12987;BME280;58897;51.960;5.582;2024-03-02T10:00:12;99839.34;;;12.68;100.00
12987;BME280;58897;51.960;5.582;2024-03-02T10:02:42;99847.03;;;12.58;100.00
12987;BME280;58897;51.960;5.582;2024-03-02T10:05:09;99840.75;;;12.51;100.00
12987;BME280;58897;51.960;5.582;2024-03-02T10:07:36;99851.81;;;12.56;100.00
12987;BME280;58897;51.960;5.582;2024-03-02T10:10:14;99844.28;;;12.51;100.00
12987;BME280;58897;51.960;5.582;2024-03-02T10:12:40;99838.22;;;12.49;100.00
12987;BME280;58897;51.960;5.582;2024-03-02T10:15:08;99848.06;;;12.97;100.00
12987;BME280;58897;51.960;5.582;2024-03-02T10:17:36;99833.97;;;13.09;100.00
12987;BME280;58897;51.960;5.582;2024-03-02T10:20:21;99844.31;;;13.05;100.00
12987;BME280;58897;51.960;5.582;2024-03-02T10:22:50;99856.59;;;12.54;100.00
12987;BME280;58897;51.960;5.582;2024-03-02T10:25:33;99841.78;;;12.97;100.00
12987;BME280;58897;51.960;5.582;2024-03-02T10:28:16;99840.88;;;12.77;100.00
12987;BME280;58897;51.960;5.582;2024-03-02T10:30:47;99835.91;;;13.34;100.00
12987;BME280;58897;51.960;5.582;2024-03-02T10:33:14;99834.09;;;13.00;100.00
12987;BME280;58897;51.960;5.582;2024-03-02T10:35:42;99830.59;;;13.07;100.00
12987;BME280;58897;51.960;5.582;2024-03-02T10:38:11;99819.88;;;13.52;100.00
12987;BME280;58897;51.960;5.582;2024-03-02T10:40:38;99819.69;;;14.00;100.00
12987;BME280;58897;51.960;5.582;2024-03-02T10:43:04;99819.03;;;13.78;97.89
12987;BME280;58897;51.960;5.582;2024-03-02T10:45:32;99824.03;;;13.75;98.93
12987;BME280;58897;51.960;5.582;2024-03-02T10:48:01;99816.53;;;13.70;100.00
12987;BME280;58897;51.960;5.582;2024-03-02T10:50:29;99811.28;;;14.21;97.62
12987;BME280;58897;51.960;5.582;2024-03-02T10:52:57;99811.09;;;14.36;95.86
12987;BME280;58897;51.960;5.582;2024-03-02T10:55:23;99805.28;;;13.86;94.70
12987;BME280;58897;51.960;5.582;2024-03-02T10:57:52;99810.28;;;13.89;96.23
12987;BME280;58897;51.960;5.582;2024-03-02T11:00:25;99802.25;;;14.53;91.93
12987;BME280;58897;51.960;5.582;2024-03-02T11:03:00;99810.16;;;15.12;91.49
12987;BME280;58897;51.960;5.582;2024-03-02T11:05:34;99806.22;;;15.08;90.06
12987;BME280;58897;51.960;5.582;2024-03-02T11:08:22;99793.53;;;14.38;89.54
12987;BME280;58897;51.960;5.582;2024-03-02T11:10:58;99804.13;;;14.59;93.22
12987;BME280;58897;51.960;5.582;2024-03-02T11:13:31;99808.13;;;15.46;92.45
12987;BME280;58897;51.960;5.582;2024-03-02T11:16:03;99809.06;;;15.26;88.02
12987;BME280;58897;51.960;5.582;2024-03-02T11:18:33;99813.56;;;14.50;90.23
12987;BME280;58897;51.960;5.582;2024-03-02T11:21:01;99808.94;;;14.57;87.09
12987;BME280;58897;51.960;5.582;2024-03-02T11:23:33;99811.09;;;14.22;91.54
12987;BME280;58897;51.960;5.582;2024-03-02T11:28:47;99803.13;;;14.21;91.09
12987;BME280;58897;51.960;5.582;2024-03-02T11:31:14;99817.81;;;14.91;83.89
12987;BME280;58897;51.960;5.582;2024-03-02T11:33:41;99798.31;;;15.38;80.42
12987;BME280;58897;51.960;5.582;2024-03-02T11:36:08;99801.66;;;15.40;77.33
12987;BME280;58897;51.960;5.582;2024-03-02T11:38:37;99797.78;;;15.54;75.34
12987;BME280;58897;51.960;5.582;2024-03-02T11:41:07;99790.75;;;15.09;77.08
12987;BME280;58897;51.960;5.582;2024-03-02T11:43:38;99789.09;;;15.70;75.04
12987;BME280;58897;51.960;5.582;2024-03-02T11:46:10;99812.97;;;15.37;74.31
12987;BME280;58897;51.960;5.582;2024-03-02T11:48:39;99790.63;;;15.60;80.59
12987;BME280;58897;51.960;5.582;2024-03-02T11:51:06;99790.00;;;15.89;78.36
12987;BME280;58897;51.960;5.582;2024-03-02T11:53:33;99791.13;;;15.12;76.36
12987;BME280;58897;51.960;5.582;2024-03-02T11:56:02;99778.84;;;16.15;79.47
12987;BME280;58897;51.960;5.582;2024-03-02T11:58:28;99786.91;;;15.54;77.50
12987;BME280;58897;51.960;5.582;2024-03-02T12:00:56;99794.44;;;15.83;76.55
12987;BME280;58897;51.960;5.582;2024-03-02T12:03:24;99785.25;;;15.53;75.79
12987;BME280;58897;51.960;5.582;2024-03-02T12:05:53;99778.84;;;15.90;75.38
12987;BME280;58897;51.960;5.582;2024-03-02T12:08:20;99774.31;;;14.84;82.47
12987;BME280;58897;51.960;5.582;2024-03-02T12:11:01;99778.03;;;14.52;83.26
12987;BME280;58897;51.960;5.582;2024-03-02T12:13:30;99768.88;;;14.91;90.97
12987;BME280;58897;51.960;5.582;2024-03-02T12:15:56;99757.19;;;14.33;89.40
12987;BME280;58897;51.960;5.582;2024-03-02T12:18:23;99766.19;;;14.00;91.27
12987;BME280;58897;51.960;5.582;2024-03-02T12:20:50;99769.91;;;14.96;87.23
12987;BME280;58897;51.960;5.582;2024-03-02T12:23:19;99767.00;;;14.91;86.52
12987;BME280;58897;51.960;5.582;2024-03-02T12:25:46;99753.53;;;14.65;87.24
12987;BME280;58897;51.960;5.582;2024-03-02T12:28:13;99755.88;;;14.42;89.63
12987;BME280;58897;51.960;5.582;2024-03-02T12:30:40;99748.19;;;14.32;87.99
12987;BME280;58897;51.960;5.582;2024-03-02T12:33:06;99743.44;;;14.72;87.79
12987;BME280;58897;51.960;5.582;2024-03-02T12:35:33;99739.06;;;13.81;91.42
12987;BME280;58897;51.960;5.582;2024-03-02T12:38:00;99753.25;;;13.96;94.80
12987;BME280;58897;51.960;5.582;2024-03-02T12:40:26;99738.25;;;13.34;98.54
12987;BME280;58897;51.960;5.582;2024-03-02T12:42:53;99743.47;;;13.42;100.00
12987;BME280;58897;51.960;5.582;2024-03-02T12:45:20;99744.41;;;14.40;98.04
12987;BME280;58897;51.960;5.582;2024-03-02T12:47:51;99734.59;;;14.19;95.62
12987;BME280;58897;51.960;5.582;2024-03-02T12:50:18;99740.72;;;13.95;95.91
12987;BME280;58897;51.960;5.582;2024-03-02T12:52:53;99735.34;;;13.69;99.21
12987;BME280;58897;51.960;5.582;2024-03-02T12:55:21;99734.66;;;15.08;93.91
12987;BME280;58897;51.960;5.582;2024-03-02T12:57:52;99735.63;;;14.44;95.39
12987;BME280;58897;51.960;5.582;2024-03-02T13:00:20;99725.69;;;14.69;95.46
12987;BME280;58897;51.960;5.582;2024-03-02T13:02:48;99723.22;;;13.71;96.75
12987;BME280;58897;51.960;5.582;2024-03-02T13:05:18;99716.09;;;13.77;96.54
12987;BME280;58897;51.960;5.582;2024-03-02T13:07:50;99712.50;;;14.09;91.87
12987;BME280;58897;51.960;5.582;2024-03-02T13:10:17;99713.78;;;14.64;91.31